Ladjarii — YT2443 — position and weather

sailwx.info

Track history (hours):
 
Tides and Currents Weather Stations Pressure Air Temp Water Temp Dewpoint Dewpoint Depression Visibility Wind Speed Wind Dir Waves Ship Positions

Ladjarii

Last reported at 2017-Nov-18 02:51 UTC. Time now 2017-Nov-18 03:05 UTC.
Position N 45°22' E 018°59'.

Length 90 m; draft 1.1 m.

Type: Tanker. MMSI: 279202443.

Date/timePositionNaut miles runAvg speedWind from/ knotsBaromVisibWave heightAir tempDewpointWater temp
2017-Nov-18 02:51N 45°22' E 018°59'0 0.0
2017-Nov-18 02:27N 45°22' E 018°59'0 0.0
2017-Nov-18 01:57N 45°22' E 018°59'0 0.0
2017-Nov-18 01:10N 45°22' E 018°59'0 0.0
2017-Nov-18 00:54N 45°22' E 018°59'0 0.0
2017-Nov-17 23:53N 45°22' E 018°59'0 0.0
2017-Nov-17 22:46N 45°22' E 018°59'0 0.0
2017-Nov-17 22:22N 45°22' E 018°59'0 0.0
2017-Nov-17 21:59N 45°22' E 018°59'1 2.9
2017-Nov-17 21:31N 45°21' E 019°01'3 5.9
2017-Nov-17 21:00N 45°20' E 019°05'3 5.5
2017-Nov-17 20:31N 45°18' E 019°06'3 5.7
2017-Nov-17 20:01N 45°17' E 019°10'3 5.8
2017-Nov-17 19:30N 45°15' E 019°14'3 5.4
2017-Nov-17 19:00N 45°14' E 019°17'3 6.0
2017-Nov-17 18:31N 45°14' E 019°21'3 5.8
2017-Nov-17 18:01N 45°14' E 019°25'6 5.3
2017-Nov-17 16:57N 45°15' E 019°33'5 4.7
2017-Nov-17 15:55N 45°13' E 019°40'3 6.0
2017-Nov-17 15:30N 45°14' E 019°44'5 5.9
2017-Nov-17 14:35N 45°14' E 019°51'0 0.9
2017-Nov-17 14:28N 45°14' E 019°51'2 2.4
2017-Nov-17 13:48N 45°16' E 019°52'0 0.0
2017-Nov-17 13:29N 45°16' E 019°52'0 0.0
2017-Nov-17 12:43N 45°16' E 019°52'0 0.0
2017-Nov-17 12:29N 45°16' E 019°52'0 1.0
2017-Nov-17 12:00N 45°16' E 019°51'0 0.0
2017-Nov-17 11:13N 45°16' E 019°51'0 0.0
2017-Nov-17 11:00N 45°16' E 019°51'0 0.0
2017-Nov-17 10:27N 45°16' E 019°51'0 0.0
2017-Nov-17 09:55N 45°16' E 019°51'0 0.0
2017-Nov-17 09:13N 45°16' E 019°51'0 0.0
2017-Nov-17 09:00N 45°16' E 019°51'0 0.0
2017-Nov-17 08:31N 45°16' E 019°51'0 0.0
2017-Nov-17 07:44N 45°16' E 019°51'0 0.0
2017-Nov-17 07:30N 45°16' E 019°51'0 0.0
2017-Nov-17 07:00N 45°16' E 019°51'0 0.0
2017-Nov-17 06:11N 45°16' E 019°51'0 0.0
2017-Nov-17 06:00N 45°16' E 019°51'0 0.0
2017-Nov-17 05:28N 45°16' E 019°51'0 0.0
2017-Nov-17 04:42N 45°16' E 019°51'0 0.0
2017-Nov-17 04:31N 45°16' E 019°51'0 0.0
2017-Nov-17 03:54N 45°16' E 019°51'0 0.0
2017-Nov-17 03:18N 45°16' E 019°51'0 0.0
2017-Nov-17 02:53N 45°16' E 019°51'0 0.0
2017-Nov-17 02:30N 45°16' E 019°51'0 0.0
2017-Nov-17 02:00N 45°16' E 019°51'0 0.0
2017-Nov-17 01:14N 45°16' E 019°51'0 0.0
2017-Nov-17 00:59N 45°16' E 019°51'0 0.0
2017-Nov-17 00:29N 45°16' E 019°51'0 0.0
2017-Nov-16 23:37N 45°16' E 019°51'0 0.0
2017-Nov-16 23:27N 45°16' E 019°51'0 0.0
2017-Nov-16 22:53N 45°16' E 019°51'0 0.0
2017-Nov-16 22:29N 45°16' E 019°51'0 0.0
2017-Nov-16 22:00N 45°16' E 019°51'0 0.0
2017-Nov-16 21:12N 45°16' E 019°51'0 0.0
2017-Nov-16 20:59N 45°16' E 019°51'0 0.0
2017-Nov-16 20:31N 45°16' E 019°51'1 1.7
2017-Nov-16 20:00N 45°16' E 019°52'4 5.4
2017-Nov-16 19:14N 45°13' E 019°56'2 5.9
2017-Nov-16 18:55N 45°11' E 019°58'3 7.3
2017-Nov-16 18:30N 45°10' E 020°02'2 4.0
2017-Nov-16 18:00N 45°10' E 020°05'2 4.2
2017-Nov-16 17:27N 45°10' E 020°08'1 2.6
2017-Nov-16 16:59N 45°11' E 020°10'2 5.0
2017-Nov-16 16:30N 45°10' E 020°13'3 5.7
2017-Nov-16 15:57N 45°08' E 020°16'3 5.8
2017-Nov-16 15:29N 45°06' E 020°18'3 5.5
2017-Nov-16 15:00N 45°04' E 020°21'3 5.9
2017-Nov-16 14:31N 45°01' E 020°22'2 3.8
2017-Nov-16 14:00N 44°60' E 020°20'2 3.2
2017-Nov-16 13:30N 44°59' E 020°18'3 5.6
2017-Nov-16 13:00N 44°56' E 020°18'3 6.1
2017-Nov-16 12:30N 44°54' E 020°21'3 5.9
2017-Nov-16 12:01N 44°52' E 020°23'3 6.0
2017-Nov-16 11:30N 44°50' E 020°27'3 5.9
2017-Nov-16 11:01N 44°50' E 020°31'3 6.0
2017-Nov-16 10:31N 44°51' E 020°35'2 4.5
2017-Nov-16 10:01N 44°51' E 020°38'1 1.9
2017-Nov-16 09:31N 44°50' E 020°39'0 0.0
2017-Nov-16 09:00N 44°50' E 020°39'0 0.0
2017-Nov-16 08:30N 44°50' E 020°39'0 0.0
2017-Nov-16 08:01N 44°50' E 020°39'0 0.0
2017-Nov-16 07:30N 44°50' E 020°39'0 0.0
2017-Nov-16 07:00N 44°50' E 020°39'0 0.0
2017-Nov-16 06:31N 44°50' E 020°39'0 0.0
2017-Nov-16 06:01N 44°50' E 020°39'0 0.0
2017-Nov-16 05:31N 44°50' E 020°39'0 0.0
2017-Nov-16 05:00N 44°50' E 020°39'0 0.0
2017-Nov-16 04:30N 44°50' E 020°39'0 0.0
2017-Nov-16 04:00N 44°50' E 020°39'0 0.0
2017-Nov-16 03:31N 44°50' E 020°39'0 0.0
2017-Nov-16 03:01N 44°50' E 020°39'0 0.0
2017-Nov-16 02:31N 44°50' E 020°39'0 0.0
2017-Nov-16 02:00N 44°50' E 020°39'0 0.0
2017-Nov-16 01:31N 44°50' E 020°39'0 0.0
2017-Nov-16 01:01N 44°50' E 020°39'0 0.0
2017-Nov-16 00:31N 44°50' E 020°39'0 0.0
2017-Nov-16 00:01N 44°50' E 020°39'0 0.0
2017-Nov-15 23:30N 44°50' E 020°39'0 0.0
2017-Nov-15 23:00N 44°50' E 020°39'0 0.0
2017-Nov-15 22:31N 44°50' E 020°39'0 0.0
2017-Nov-15 22:01N 44°50' E 020°39'0 0.0
2017-Nov-15 21:30N 44°50' E 020°39'0 0.0
2017-Nov-15 21:01N 44°50' E 020°39'0 0.0
2017-Nov-15 20:31N 44°50' E 020°39'0 0.0
2017-Nov-15 20:01N 44°50' E 020°39'0 0.0
2017-Nov-15 19:31N 44°50' E 020°39'0 0.0
2017-Nov-15 19:01N 44°50' E 020°39'0 0.0
2017-Nov-15 18:31N 44°50' E 020°39'0 0.0
2017-Nov-15 18:01N 44°50' E 020°39'0 0.0
2017-Nov-15 17:30N 44°50' E 020°39'2 4.4
2017-Nov-15 17:01N 44°51' E 020°37'5 9.6
2017-Nov-15 16:30N 44°50' E 020°30'1 2.8
2017-Nov-15 16:01N 44°50' E 020°28'0 0.0
2017-Nov-15 15:31N 44°50' E 020°28'1 2.4
2017-Nov-15 15:01N 44°50' E 020°30'4 7.2
2017-Nov-15 14:31N 44°51' E 020°35'3 6.2
2017-Nov-15 14:00N 44°50' E 020°39'4 7.3
2017-Nov-15 13:30N 44°46' E 020°38'3 6.5
2017-Nov-15 13:00N 44°44' E 020°41'3 6.8
2017-Nov-15 12:31N 44°41' E 020°44'3 6.2
2017-Nov-15 12:01N 44°40' E 020°48'3 6.4
2017-Nov-15 11:30N 44°40' E 020°52'3 5.8
2017-Nov-15 11:01N 44°41' E 020°56'1 2.4
2017-Nov-15 10:30N 44°41' E 020°57'0 0.0
2017-Nov-15 10:00N 44°41' E 020°57'0 0.0
2017-Nov-15 09:30N 44°42' E 020°57'0 0.0
2017-Nov-15 09:00N 44°41' E 020°57'0 0.0
2017-Nov-15 08:30N 44°41' E 020°57'0 0.0
2017-Nov-15 08:01N 44°41' E 020°57'0 0.0
2017-Nov-15 07:30N 44°41' E 020°57'0 0.0
2017-Nov-15 07:00N 44°41' E 020°57'0 0.0
2017-Nov-15 06:30N 44°41' E 020°57'0 0.0
2017-Nov-15 06:00N 44°41' E 020°57'0 0.0
2017-Nov-15 05:30N 44°41' E 020°57'0 0.0
2017-Nov-15 05:00N 44°42' E 020°57'0 0.0
2017-Nov-15 04:30N 44°41' E 020°57'0 0.0
2017-Nov-15 04:01N 44°41' E 020°57'0 0.0
2017-Nov-15 03:30N 44°41' E 020°57'0 0.0
2017-Nov-15 03:01N 44°41' E 020°57'0 0.0
2017-Nov-15 02:30N 44°41' E 020°57'0 0.0
2017-Nov-15 02:00N 44°41' E 020°57'0 0.0
2017-Nov-15 01:31N 44°41' E 020°57'0 0.0
2017-Nov-15 01:00N 44°41' E 020°57'0 0.0
2017-Nov-15 00:30N 44°41' E 020°57'0 0.0
2017-Nov-15 00:01N 44°41' E 020°57'0 0.0
2017-Nov-14 23:31N 44°41' E 020°57'0 0.0
2017-Nov-14 23:01N 44°41' E 020°57'0 0.1
2017-Nov-14 22:30N 44°41' E 020°57'0 0.2
2017-Nov-14 22:00N 44°41' E 020°57'0 0.0
2017-Nov-14 21:30N 44°41' E 020°57'0 0.0
2017-Nov-14 21:00N 44°41' E 020°57'0 0.0
2017-Nov-14 20:31N 44°41' E 020°57'0 0.0
2017-Nov-14 20:01N 44°41' E 020°57'0 0.0
2017-Nov-14 19:30N 44°41' E 020°57'0 0.0
2017-Nov-14 18:59N 44°41' E 020°57'0 0.0
2017-Nov-14 18:29N 44°41' E 020°57'0 0.0
2017-Nov-14 17:53N 44°41' E 020°57'0 0.0
2017-Nov-14 17:25N 44°41' E 020°57'0 0.0
2017-Nov-14 17:00N 44°41' E 020°57'0 0.0
2017-Nov-14 16:28N 44°41' E 020°57'0 0.0
2017-Nov-14 16:00N 44°41' E 020°57'0 0.0
2017-Nov-14 15:30N 44°41' E 020°57'0 0.0
2017-Nov-14 15:00N 44°41' E 020°57'0 0.0
2017-Nov-14 14:30N 44°41' E 020°57'0 0.0
2017-Nov-14 14:00N 44°41' E 020°57'0 0.0
2017-Nov-14 13:28N 44°41' E 020°57'0 0.0
2017-Nov-14 13:00N 44°41' E 020°57'0 0.0
2017-Nov-14 12:30N 44°41' E 020°57'0 0.0
2017-Nov-14 12:00N 44°41' E 020°57'0 0.0
2017-Nov-14 11:30N 44°41' E 020°57'0 0.0
2017-Nov-14 11:00N 44°41' E 020°57'0 0.0
2017-Nov-14 10:30N 44°41' E 020°57'0 0.0
2017-Nov-14 10:01N 44°41' E 020°57'0 0.0
2017-Nov-14 09:31N 44°41' E 020°57'0 0.0
2017-Nov-14 09:00N 44°41' E 020°57'0 0.0
2017-Nov-14 08:30N 44°41' E 020°57'0 0.0
2017-Nov-14 08:00N 44°41' E 020°57'0 0.0
2017-Nov-14 07:30N 44°41' E 020°57'0 0.0
2017-Nov-14 07:00N 44°41' E 020°57'0 0.0
2017-Nov-14 06:27N 44°41' E 020°57'0 0.0
2017-Nov-14 06:00N 44°41' E 020°57'0 0.0
2017-Nov-14 05:31N 44°41' E 020°57'0 0.0
2017-Nov-14 05:00N 44°41' E 020°57'0 0.0
2017-Nov-14 04:29N 44°41' E 020°57'0 0.0
2017-Nov-14 04:00N 44°41' E 020°57'0 0.0
2017-Nov-14 03:30N 44°41' E 020°57'0 0.0
2017-Nov-14 03:00N 44°41' E 020°57'0 0.0
2017-Nov-14 02:31N 44°41' E 020°57'0 0.0
2017-Nov-14 02:01N 44°41' E 020°57'0 0.0
2017-Nov-14 01:30N 44°41' E 020°57'0 0.0
2017-Nov-14 01:00N 44°41' E 020°57'0 0.0
2017-Nov-14 00:30N 44°41' E 020°57'0 0.0
2017-Nov-14 00:00N 44°41' E 020°57'0 0.0
2017-Nov-13 23:30N 44°41' E 020°57'0 0.0
2017-Nov-13 23:00N 44°41' E 020°57'0 0.0
2017-Nov-13 22:30N 44°41' E 020°57'0 0.0
2017-Nov-13 22:01N 44°41' E 020°57'0 0.0
2017-Nov-13 02:00N 44°42' E 020°57'0 0.0
2017-Nov-13 01:21N 44°42' E 020°57'0 0.0
2017-Nov-13 00:59N 44°42' E 020°57'0 0.0
2017-Nov-13 00:30N 44°42' E 020°57'0 0.0
2017-Nov-13 00:00N 44°42' E 020°57'0 0.0
2017-Nov-12 23:30N 44°42' E 020°57'0 0.0
2017-Nov-12 23:00N 44°42' E 020°57'0 0.0
2017-Nov-12 22:30N 44°42' E 020°57'0 0.0
2017-Nov-12 22:00N 44°42' E 020°57'0 0.0
2017-Nov-12 21:30N 44°42' E 020°57'0 0.0
2017-Nov-12 21:00N 44°42' E 020°57'0 0.0
2017-Nov-12 20:30N 44°42' E 020°57'0 0.0
2017-Nov-12 20:01N 44°42' E 020°57'0 0.0
2017-Nov-12 19:30N 44°42' E 020°57'0 0.0
2017-Nov-12 19:00N 44°42' E 020°57'0 0.0
2017-Nov-12 18:27N 44°42' E 020°57'0 0.0
2017-Nov-12 18:00N 44°42' E 020°57'0 0.0
2017-Nov-12 17:31N 44°42' E 020°57'0 0.0
2017-Nov-12 17:00N 44°42' E 020°57'0 0.0
2017-Nov-12 16:30N 44°42' E 020°57'0 0.0
2017-Nov-12 16:00N 44°42' E 020°57'0 0.0
2017-Nov-12 15:30N 44°42' E 020°57'0 0.0
2017-Nov-12 15:01N 44°42' E 020°57'0 0.0
2017-Nov-12 14:30N 44°42' E 020°57'0 0.0
2017-Nov-12 14:00N 44°42' E 020°57'0 0.0
2017-Nov-12 13:30N 44°42' E 020°57'0 0.0
2017-Nov-12 13:01N 44°42' E 020°57'0 0.0
2017-Nov-12 12:31N 44°42' E 020°57'0 0.0
2017-Nov-12 12:00N 44°42' E 020°57'0 0.0
2017-Nov-12 11:30N 44°42' E 020°57'0 0.0
2017-Nov-12 11:00N 44°42' E 020°57'10 5.9
2017-Nov-12 09:14N 44°42' E 020°43'3 8.4
2017-Nov-12 08:53N 44°44' E 020°40'3 8.2
2017-Nov-12 08:30N 44°46' E 020°38'4 8.1
2017-Nov-12 08:00N 44°50' E 020°38'4 7.5
2017-Nov-12 07:30N 44°50' E 020°33'4 8.1
2017-Nov-12 07:00N 44°50' E 020°27'4 8.9
2017-Nov-12 06:30N 44°52' E 020°22'4 8.7
2017-Nov-12 06:00N 44°56' E 020°19'4 7.5
2017-Nov-12 05:30N 44°60' E 020°19'4 7.1
2017-Nov-12 05:00N 45°03' E 020°21'4 8.9
2017-Nov-12 04:31N 45°07' E 020°18'4 8.8
2017-Nov-12 04:00N 45°10' E 020°14'4 8.3
2017-Nov-12 03:31N 45°10' E 020°08'5 9.1
2017-Nov-12 03:00N 45°10' E 020°01'5 8.4
2017-Nov-12 02:28N 45°13' E 019°56'4 8.6
2017-Nov-12 02:00N 45°16' E 019°52'4 7.6
2017-Nov-12 01:27N 45°13' E 019°47'3 6.5
2017-Nov-12 01:00N 45°14' E 019°43'6 9.0
2017-Nov-12 00:18N 45°13' E 019°34'3 6.9
2017-Nov-11 23:50N 45°15' E 019°30'3 9.4
2017-Nov-11 23:30N 45°14' E 019°26'12 9.2
2017-Nov-11 22:12N 45°17' E 019°09'3 9.3
2017-Nov-11 21:55N 45°18' E 019°06'3 7.6
2017-Nov-11 21:30N 45°21' E 019°04'5 8.8
2017-Nov-11 20:59N 45°23' E 018°58'3 7.3
2017-Nov-11 20:31N 45°26' E 019°01'4 7.9
2017-Nov-11 20:01N 45°29' E 018°60'4 8.2
2017-Nov-11 19:31N 45°30' E 019°06'4 7.3
2017-Nov-11 19:01N 45°32' E 019°02'3 6.7
2017-Nov-11 18:30N 45°32' E 018°57'4 7.8
2017-Nov-11 18:01N 45°35' E 018°54'4 7.7
2017-Nov-11 17:31N 45°38' E 018°56'3 6.3
2017-Nov-11 17:01N 45°42' E 018°55'5 9.1
2017-Nov-11 16:30N 45°46' E 018°54'4 7.5
2017-Nov-11 16:00N 45°49' E 018°51'2 0.7
2017-Nov-11 13:35N 45°51' E 018°52'0 1.2
2017-Nov-11 13:30N 45°51' E 018°52'3 6.6
2017-Nov-11 12:59N 45°54' E 018°50'84 3.0
2017-Nov-10 09:04N 47°17' E 018°55'0 0.0
2017-Nov-10 08:37N 47°17' E 018°55'0 0.0
2017-Nov-10 07:41N 47°17' E 018°55'0 0.0
2017-Nov-10 07:25N 47°17' E 018°55'0 0.0
2017-Nov-10 07:00N 47°17' E 018°55'0 0.0
2017-Nov-10 06:24N 47°17' E 018°55'0 0.0
2017-Nov-10 05:54N 47°17' E 018°55'0 0.0
2017-Nov-10 05:30N 47°17' E 018°55'0 0.0
2017-Nov-10 04:50N 47°17' E 018°55'0 0.0
2017-Nov-10 04:18N 47°17' E 018°55'0 0.0
2017-Nov-10 03:59N 47°17' E 018°55'0 0.0
2017-Nov-10 03:26N 47°17' E 018°55'0 0.0
2017-Nov-10 02:50N 47°17' E 018°55'0 0.0
2017-Nov-10 02:12N 47°17' E 018°55'0 0.0
2017-Nov-10 02:00N 47°17' E 018°55'0 0.0
2017-Nov-10 01:20N 47°17' E 018°55'0 0.0
2017-Nov-10 00:50N 47°17' E 018°55'0 0.0
2017-Nov-10 00:28N 47°17' E 018°55'0 0.0
2017-Nov-09 23:46N 47°17' E 018°55'0 0.0
2017-Nov-09 23:17N 47°17' E 018°55'0 0.0
2017-Nov-09 22:59N 47°17' E 018°55'0 0.0
2017-Nov-09 22:29N 47°17' E 018°55'0 0.0
2017-Nov-09 21:55N 47°17' E 018°55'0 0.0
2017-Nov-09 21:25N 47°17' E 018°55'0 0.0
2017-Nov-09 20:49N 47°17' E 018°55'0 0.0
2017-Nov-09 20:25N 47°17' E 018°55'0 0.0
2017-Nov-09 19:59N 47°17' E 018°55'0 0.0
2017-Nov-09 19:23N 47°17' E 018°55'0 0.0
2017-Nov-09 16:07N 47°17' E 018°55'0 0.0
2017-Nov-09 15:52N 47°17' E 018°55'0 0.0
2017-Nov-09 15:04N 47°17' E 018°55'0 0.0
2017-Nov-09 13:45N 47°17' E 018°55'0 0.0
2017-Nov-09 13:22N 47°17' E 018°55'0 0.0
2017-Nov-09 12:40N 47°17' E 018°55'0 0.0
2017-Nov-09 06:21N 47°18' E 018°55'0 0.0
2017-Nov-09 05:12N 47°18' E 018°55'0 0.0
2017-Nov-09 05:00N 47°18' E 018°55'0 0.0
2017-Nov-09 02:54N 47°18' E 018°55'0 0.0
2017-Nov-09 01:58N 47°18' E 018°55'0 0.0
2017-Nov-09 00:30N 47°18' E 018°55'0 0.0
2017-Nov-08 23:51N 47°18' E 018°55'0 0.0
2017-Nov-08 12:32N 47°18' E 018°55'  
Track history (hours):
 
Tides and Currents Weather Stations Pressure Air Temp Water Temp Dewpoint Dewpoint Depression Visibility Wind Speed Wind Dir Waves Ship Positions

Ladjarii

Last reported at 2017-Nov-18 02:51 UTC. Time now 2017-Nov-18 03:05 UTC.
Position N 45°22' E 018°59'.

Length 90 m; draft 1.1 m.

Type: Tanker. MMSI: 279202443.

Date/timePositionNaut miles runAvg speedWind from/ knotsBaromVisibWave heightAir tempDewpointWater temp
2017-Nov-18 02:51N 45°22' E 018°59'0 0.0
2017-Nov-18 02:27N 45°22' E 018°59'0 0.0
2017-Nov-18 01:57N 45°22' E 018°59'0 0.0
2017-Nov-18 01:10N 45°22' E 018°59'0 0.0
2017-Nov-18 00:54N 45°22' E 018°59'0 0.0
2017-Nov-17 23:53N 45°22' E 018°59'0 0.0
2017-Nov-17 22:46N 45°22' E 018°59'0 0.0
2017-Nov-17 22:22N 45°22' E 018°59'0 0.0
2017-Nov-17 21:59N 45°22' E 018°59'1 2.9
2017-Nov-17 21:31N 45°21' E 019°01'3 5.9
2017-Nov-17 21:00N 45°20' E 019°05'3 5.5
2017-Nov-17 20:31N 45°18' E 019°06'3 5.7
2017-Nov-17 20:01N 45°17' E 019°10'3 5.8
2017-Nov-17 19:30N 45°15' E 019°14'3 5.4
2017-Nov-17 19:00N 45°14' E 019°17'3 6.0
2017-Nov-17 18:31N 45°14' E 019°21'3 5.8
2017-Nov-17 18:01N 45°14' E 019°25'6 5.3
2017-Nov-17 16:57N 45°15' E 019°33'5 4.7
2017-Nov-17 15:55N 45°13' E 019°40'3 6.0
2017-Nov-17 15:30N 45°14' E 019°44'5 5.9
2017-Nov-17 14:35N 45°14' E 019°51'0 0.9
2017-Nov-17 14:28N 45°14' E 019°51'2 2.4
2017-Nov-17 13:48N 45°16' E 019°52'0 0.0
2017-Nov-17 13:29N 45°16' E 019°52'0 0.0
2017-Nov-17 12:43N 45°16' E 019°52'0 0.0
2017-Nov-17 12:29N 45°16' E 019°52'0 1.0
2017-Nov-17 12:00N 45°16' E 019°51'0 0.0
2017-Nov-17 11:13N 45°16' E 019°51'0 0.0
2017-Nov-17 11:00N 45°16' E 019°51'0 0.0
2017-Nov-17 10:27N 45°16' E 019°51'0 0.0
2017-Nov-17 09:55N 45°16' E 019°51'0 0.0
2017-Nov-17 09:13N 45°16' E 019°51'0 0.0
2017-Nov-17 09:00N 45°16' E 019°51'0 0.0
2017-Nov-17 08:31N 45°16' E 019°51'0 0.0
2017-Nov-17 07:44N 45°16' E 019°51'0 0.0
2017-Nov-17 07:30N 45°16' E 019°51'0 0.0
2017-Nov-17 07:00N 45°16' E 019°51'0 0.0
2017-Nov-17 06:11N 45°16' E 019°51'0 0.0
2017-Nov-17 06:00N 45°16' E 019°51'0 0.0
2017-Nov-17 05:28N 45°16' E 019°51'0 0.0
2017-Nov-17 04:42N 45°16' E 019°51'0 0.0
2017-Nov-17 04:31N 45°16' E 019°51'0 0.0
2017-Nov-17 03:54N 45°16' E 019°51'0 0.0
2017-Nov-17 03:18N 45°16' E 019°51'0 0.0
2017-Nov-17 02:53N 45°16' E 019°51'0 0.0
2017-Nov-17 02:30N 45°16' E 019°51'0 0.0
2017-Nov-17 02:00N 45°16' E 019°51'0 0.0
2017-Nov-17 01:14N 45°16' E 019°51'0 0.0
2017-Nov-17 00:59N 45°16' E 019°51'0 0.0
2017-Nov-17 00:29N 45°16' E 019°51'0 0.0
2017-Nov-16 23:37N 45°16' E 019°51'0 0.0
2017-Nov-16 23:27N 45°16' E 019°51'0 0.0
2017-Nov-16 22:53N 45°16' E 019°51'0 0.0
2017-Nov-16 22:29N 45°16' E 019°51'0 0.0
2017-Nov-16 22:00N 45°16' E 019°51'0 0.0
2017-Nov-16 21:12N 45°16' E 019°51'0 0.0
2017-Nov-16 20:59N 45°16' E 019°51'0 0.0
2017-Nov-16 20:31N 45°16' E 019°51'1 1.7
2017-Nov-16 20:00N 45°16' E 019°52'4 5.4
2017-Nov-16 19:14N 45°13' E 019°56'2 5.9
2017-Nov-16 18:55N 45°11' E 019°58'3 7.3
2017-Nov-16 18:30N 45°10' E 020°02'2 4.0
2017-Nov-16 18:00N 45°10' E 020°05'2 4.2
2017-Nov-16 17:27N 45°10' E 020°08'1 2.6
2017-Nov-16 16:59N 45°11' E 020°10'2 5.0
2017-Nov-16 16:30N 45°10' E 020°13'3 5.7
2017-Nov-16 15:57N 45°08' E 020°16'3 5.8
2017-Nov-16 15:29N 45°06' E 020°18'3 5.5
2017-Nov-16 15:00N 45°04' E 020°21'3 5.9
2017-Nov-16 14:31N 45°01' E 020°22'2 3.8
2017-Nov-16 14:00N 44°60' E 020°20'2 3.2
2017-Nov-16 13:30N 44°59' E 020°18'3 5.6
2017-Nov-16 13:00N 44°56' E 020°18'3 6.1
2017-Nov-16 12:30N 44°54' E 020°21'3 5.9
2017-Nov-16 12:01N 44°52' E 020°23'3 6.0
2017-Nov-16 11:30N 44°50' E 020°27'3 5.9
2017-Nov-16 11:01N 44°50' E 020°31'3 6.0
2017-Nov-16 10:31N 44°51' E 020°35'2 4.5
2017-Nov-16 10:01N 44°51' E 020°38'1 1.9
2017-Nov-16 09:31N 44°50' E 020°39'0 0.0
2017-Nov-16 09:00N 44°50' E 020°39'0 0.0
2017-Nov-16 08:30N 44°50' E 020°39'0 0.0
2017-Nov-16 08:01N 44°50' E 020°39'0 0.0
2017-Nov-16 07:30N 44°50' E 020°39'0 0.0
2017-Nov-16 07:00N 44°50' E 020°39'0 0.0
2017-Nov-16 06:31N 44°50' E 020°39'0 0.0
2017-Nov-16 06:01N 44°50' E 020°39'0 0.0
2017-Nov-16 05:31N 44°50' E 020°39'0 0.0
2017-Nov-16 05:00N 44°50' E 020°39'0 0.0
2017-Nov-16 04:30N 44°50' E 020°39'0 0.0
2017-Nov-16 04:00N 44°50' E 020°39'0 0.0
2017-Nov-16 03:31N 44°50' E 020°39'0 0.0
2017-Nov-16 03:01N 44°50' E 020°39'0 0.0
2017-Nov-16 02:31N 44°50' E 020°39'0 0.0
2017-Nov-16 02:00N 44°50' E 020°39'0 0.0
2017-Nov-16 01:31N 44°50' E 020°39'0 0.0
2017-Nov-16 01:01N 44°50' E 020°39'0 0.0
2017-Nov-16 00:31N 44°50' E 020°39'0 0.0
2017-Nov-16 00:01N 44°50' E 020°39'0 0.0
2017-Nov-15 23:30N 44°50' E 020°39'0 0.0
2017-Nov-15 23:00N 44°50' E 020°39'0 0.0
2017-Nov-15 22:31N 44°50' E 020°39'0 0.0
2017-Nov-15 22:01N 44°50' E 020°39'0 0.0
2017-Nov-15 21:30N 44°50' E 020°39'0 0.0
2017-Nov-15 21:01N 44°50' E 020°39'0 0.0
2017-Nov-15 20:31N 44°50' E 020°39'0 0.0
2017-Nov-15 20:01N 44°50' E 020°39'0 0.0
2017-Nov-15 19:31N 44°50' E 020°39'0 0.0
2017-Nov-15 19:01N 44°50' E 020°39'0 0.0
2017-Nov-15 18:31N 44°50' E 020°39'0 0.0
2017-Nov-15 18:01N 44°50' E 020°39'0 0.0
2017-Nov-15 17:30N 44°50' E 020°39'2 4.4
2017-Nov-15 17:01N 44°51' E 020°37'5 9.6
2017-Nov-15 16:30N 44°50' E 020°30'1 2.8
2017-Nov-15 16:01N 44°50' E 020°28'0 0.0
2017-Nov-15 15:31N 44°50' E 020°28'1 2.4
2017-Nov-15 15:01N 44°50' E 020°30'4 7.2
2017-Nov-15 14:31N 44°51' E 020°35'3 6.2
2017-Nov-15 14:00N 44°50' E 020°39'4 7.3
2017-Nov-15 13:30N 44°46' E 020°38'3 6.5
2017-Nov-15 13:00N 44°44' E 020°41'3 6.8
2017-Nov-15 12:31N 44°41' E 020°44'3 6.2
2017-Nov-15 12:01N 44°40' E 020°48'3 6.4
2017-Nov-15 11:30N 44°40' E 020°52'3 5.8
2017-Nov-15 11:01N 44°41' E 020°56'1 2.4
2017-Nov-15 10:30N 44°41' E 020°57'0 0.0
2017-Nov-15 10:00N 44°41' E 020°57'0 0.0
2017-Nov-15 09:30N 44°42' E 020°57'0 0.0
2017-Nov-15 09:00N 44°41' E 020°57'0 0.0
2017-Nov-15 08:30N 44°41' E 020°57'0 0.0
2017-Nov-15 08:01N 44°41' E 020°57'0 0.0
2017-Nov-15 07:30N 44°41' E 020°57'0 0.0
2017-Nov-15 07:00N 44°41' E 020°57'0 0.0
2017-Nov-15 06:30N 44°41' E 020°57'0 0.0
2017-Nov-15 06:00N 44°41' E 020°57'0 0.0
2017-Nov-15 05:30N 44°41' E 020°57'0 0.0
2017-Nov-15 05:00N 44°42' E 020°57'0 0.0
2017-Nov-15 04:30N 44°41' E 020°57'0 0.0
2017-Nov-15 04:01N 44°41' E 020°57'0 0.0
2017-Nov-15 03:30N 44°41' E 020°57'0 0.0
2017-Nov-15 03:01N 44°41' E 020°57'0 0.0
2017-Nov-15 02:30N 44°41' E 020°57'0 0.0
2017-Nov-15 02:00N 44°41' E 020°57'0 0.0
2017-Nov-15 01:31N 44°41' E 020°57'0 0.0
2017-Nov-15 01:00N 44°41' E 020°57'0 0.0
2017-Nov-15 00:30N 44°41' E 020°57'0 0.0
2017-Nov-15 00:01N 44°41' E 020°57'0 0.0
2017-Nov-14 23:31N 44°41' E 020°57'0 0.0
2017-Nov-14 23:01N 44°41' E 020°57'0 0.1
2017-Nov-14 22:30N 44°41' E 020°57'0 0.2
2017-Nov-14 22:00N 44°41' E 020°57'0 0.0
2017-Nov-14 21:30N 44°41' E 020°57'0 0.0
2017-Nov-14 21:00N 44°41' E 020°57'0 0.0
2017-Nov-14 20:31N 44°41' E 020°57'0 0.0
2017-Nov-14 20:01N 44°41' E 020°57'0 0.0
2017-Nov-14 19:30N 44°41' E 020°57'0 0.0
2017-Nov-14 18:59N 44°41' E 020°57'0 0.0
2017-Nov-14 18:29N 44°41' E 020°57'0 0.0
2017-Nov-14 17:53N 44°41' E 020°57'0 0.0
2017-Nov-14 17:25N 44°41' E 020°57'0 0.0
2017-Nov-14 17:00N 44°41' E 020°57'0 0.0
2017-Nov-14 16:28N 44°41' E 020°57'0 0.0
2017-Nov-14 16:00N 44°41' E 020°57'0 0.0
2017-Nov-14 15:30N 44°41' E 020°57'0 0.0
2017-Nov-14 15:00N 44°41' E 020°57'0 0.0
2017-Nov-14 14:30N 44°41' E 020°57'0 0.0
2017-Nov-14 14:00N 44°41' E 020°57'0 0.0
2017-Nov-14 13:28N 44°41' E 020°57'0 0.0
2017-Nov-14 13:00N 44°41' E 020°57'0 0.0
2017-Nov-14 12:30N 44°41' E 020°57'0 0.0
2017-Nov-14 12:00N 44°41' E 020°57'0 0.0
2017-Nov-14 11:30N 44°41' E 020°57'0 0.0
2017-Nov-14 11:00N 44°41' E 020°57'0 0.0
2017-Nov-14 10:30N 44°41' E 020°57'0 0.0
2017-Nov-14 10:01N 44°41' E 020°57'0 0.0
2017-Nov-14 09:31N 44°41' E 020°57'0 0.0
2017-Nov-14 09:00N 44°41' E 020°57'0 0.0
2017-Nov-14 08:30N 44°41' E 020°57'0 0.0
2017-Nov-14 08:00N 44°41' E 020°57'0 0.0
2017-Nov-14 07:30N 44°41' E 020°57'0 0.0
2017-Nov-14 07:00N 44°41' E 020°57'0 0.0
2017-Nov-14 06:27N 44°41' E 020°57'0 0.0
2017-Nov-14 06:00N 44°41' E 020°57'0 0.0
2017-Nov-14 05:31N 44°41' E 020°57'0 0.0
2017-Nov-14 05:00N 44°41' E 020°57'0 0.0
2017-Nov-14 04:29N 44°41' E 020°57'0 0.0
2017-Nov-14 04:00N 44°41' E 020°57'0 0.0
2017-Nov-14 03:30N 44°41' E 020°57'0 0.0
2017-Nov-14 03:00N 44°41' E 020°57'0 0.0
2017-Nov-14 02:31N 44°41' E 020°57'0 0.0
2017-Nov-14 02:01N 44°41' E 020°57'0 0.0
2017-Nov-14 01:30N 44°41' E 020°57'0 0.0
2017-Nov-14 01:00N 44°41' E 020°57'0 0.0
2017-Nov-14 00:30N 44°41' E 020°57'0 0.0
2017-Nov-14 00:00N 44°41' E 020°57'0 0.0
2017-Nov-13 23:30N 44°41' E 020°57'0 0.0
2017-Nov-13 23:00N 44°41' E 020°57'0 0.0
2017-Nov-13 22:30N 44°41' E 020°57'0 0.0
2017-Nov-13 22:01N 44°41' E 020°57'0 0.0
2017-Nov-13 02:00N 44°42' E 020°57'0 0.0
2017-Nov-13 01:21N 44°42' E 020°57'0 0.0
2017-Nov-13 00:59N 44°42' E 020°57'0 0.0
2017-Nov-13 00:30N 44°42' E 020°57'0 0.0
2017-Nov-13 00:00N 44°42' E 020°57'0 0.0
2017-Nov-12 23:30N 44°42' E 020°57'0 0.0
2017-Nov-12 23:00N 44°42' E 020°57'0 0.0
2017-Nov-12 22:30N 44°42' E 020°57'0 0.0
2017-Nov-12 22:00N 44°42' E 020°57'0 0.0
2017-Nov-12 21:30N 44°42' E 020°57'0 0.0
2017-Nov-12 21:00N 44°42' E 020°57'0 0.0
2017-Nov-12 20:30N 44°42' E 020°57'0 0.0
2017-Nov-12 20:01N 44°42' E 020°57'0 0.0
2017-Nov-12 19:30N 44°42' E 020°57'0 0.0
2017-Nov-12 19:00N 44°42' E 020°57'0 0.0
2017-Nov-12 18:27N 44°42' E 020°57'0 0.0
2017-Nov-12 18:00N 44°42' E 020°57'0 0.0
2017-Nov-12 17:31N 44°42' E 020°57'0 0.0
2017-Nov-12 17:00N 44°42' E 020°57'0 0.0
2017-Nov-12 16:30N 44°42' E 020°57'0 0.0
2017-Nov-12 16:00N 44°42' E 020°57'0 0.0
2017-Nov-12 15:30N 44°42' E 020°57'0 0.0
2017-Nov-12 15:01N 44°42' E 020°57'0 0.0
2017-Nov-12 14:30N 44°42' E 020°57'0 0.0
2017-Nov-12 14:00N 44°42' E 020°57'0 0.0
2017-Nov-12 13:30N 44°42' E 020°57'0 0.0
2017-Nov-12 13:01N 44°42' E 020°57'0 0.0
2017-Nov-12 12:31N 44°42' E 020°57'0 0.0
2017-Nov-12 12:00N 44°42' E 020°57'0 0.0
2017-Nov-12 11:30N 44°42' E 020°57'0 0.0
2017-Nov-12 11:00N 44°42' E 020°57'10 5.9
2017-Nov-12 09:14N 44°42' E 020°43'3 8.4
2017-Nov-12 08:53N 44°44' E 020°40'3 8.2
2017-Nov-12 08:30N 44°46' E 020°38'4 8.1
2017-Nov-12 08:00N 44°50' E 020°38'4 7.5
2017-Nov-12 07:30N 44°50' E 020°33'4 8.1
2017-Nov-12 07:00N 44°50' E 020°27'4 8.9
2017-Nov-12 06:30N 44°52' E 020°22'4 8.7
2017-Nov-12 06:00N 44°56' E 020°19'4 7.5
2017-Nov-12 05:30N 44°60' E 020°19'4 7.1
2017-Nov-12 05:00N 45°03' E 020°21'4 8.9
2017-Nov-12 04:31N 45°07' E 020°18'4 8.8
2017-Nov-12 04:00N 45°10' E 020°14'4 8.3
2017-Nov-12 03:31N 45°10' E 020°08'5 9.1
2017-Nov-12 03:00N 45°10' E 020°01'5 8.4
2017-Nov-12 02:28N 45°13' E 019°56'4 8.6
2017-Nov-12 02:00N 45°16' E 019°52'4 7.6
2017-Nov-12 01:27N 45°13' E 019°47'3 6.5
2017-Nov-12 01:00N 45°14' E 019°43'6 9.0
2017-Nov-12 00:18N 45°13' E 019°34'3 6.9
2017-Nov-11 23:50N 45°15' E 019°30'3 9.4
2017-Nov-11 23:30N 45°14' E 019°26'12 9.2
2017-Nov-11 22:12N 45°17' E 019°09'3 9.3
2017-Nov-11 21:55N 45°18' E 019°06'3 7.6
2017-Nov-11 21:30N 45°21' E 019°04'5 8.8
2017-Nov-11 20:59N 45°23' E 018°58'3 7.3
2017-Nov-11 20:31N 45°26' E 019°01'4 7.9
2017-Nov-11 20:01N 45°29' E 018°60'4 8.2
2017-Nov-11 19:31N 45°30' E 019°06'4 7.3
2017-Nov-11 19:01N 45°32' E 019°02'3 6.7
2017-Nov-11 18:30N 45°32' E 018°57'4 7.8
2017-Nov-11 18:01N 45°35' E 018°54'4 7.7
2017-Nov-11 17:31N 45°38' E 018°56'3 6.3
2017-Nov-11 17:01N 45°42' E 018°55'5 9.1
2017-Nov-11 16:30N 45°46' E 018°54'4 7.5
2017-Nov-11 16:00N 45°49' E 018°51'2 0.7
2017-Nov-11 13:35N 45°51' E 018°52'0 1.2
2017-Nov-11 13:30N 45°51' E 018°52'3 6.6
2017-Nov-11 12:59N 45°54' E 018°50'84 3.0
2017-Nov-10 09:04N 47°17' E 018°55'0 0.0
2017-Nov-10 08:37N 47°17' E 018°55'0 0.0
2017-Nov-10 07:41N 47°17' E 018°55'0 0.0
2017-Nov-10 07:25N 47°17' E 018°55'0 0.0
2017-Nov-10 07:00N 47°17' E 018°55'0 0.0
2017-Nov-10 06:24N 47°17' E 018°55'0 0.0
2017-Nov-10 05:54N 47°17' E 018°55'0 0.0
2017-Nov-10 05:30N 47°17' E 018°55'0 0.0
2017-Nov-10 04:50N 47°17' E 018°55'0 0.0
2017-Nov-10 04:18N 47°17' E 018°55'0 0.0
2017-Nov-10 03:59N 47°17' E 018°55'0 0.0
2017-Nov-10 03:26N 47°17' E 018°55'0 0.0
2017-Nov-10 02:50N 47°17' E 018°55'0 0.0
2017-Nov-10 02:12N 47°17' E 018°55'0 0.0
2017-Nov-10 02:00N 47°17' E 018°55'0 0.0
2017-Nov-10 01:20N 47°17' E 018°55'0 0.0
2017-Nov-10 00:50N 47°17' E 018°55'0 0.0
2017-Nov-10 00:28N 47°17' E 018°55'0 0.0
2017-Nov-09 23:46N 47°17' E 018°55'0 0.0
2017-Nov-09 23:17N 47°17' E 018°55'0 0.0
2017-Nov-09 22:59N 47°17' E 018°55'0 0.0
2017-Nov-09 22:29N 47°17' E 018°55'0 0.0
2017-Nov-09 21:55N 47°17' E 018°55'0 0.0
2017-Nov-09 21:25N 47°17' E 018°55'0 0.0
2017-Nov-09 20:49N 47°17' E 018°55'0 0.0
2017-Nov-09 20:25N 47°17' E 018°55'0 0.0
2017-Nov-09 19:59N 47°17' E 018°55'0 0.0
2017-Nov-09 19:23N 47°17' E 018°55'0 0.0
2017-Nov-09 16:07N 47°17' E 018°55'0 0.0
2017-Nov-09 15:52N 47°17' E 018°55'0 0.0
2017-Nov-09 15:04N 47°17' E 018°55'0 0.0
2017-Nov-09 13:45N 47°17' E 018°55'0 0.0
2017-Nov-09 13:22N 47°17' E 018°55'0 0.0
2017-Nov-09 12:40N 47°17' E 018°55'0 0.0
2017-Nov-09 06:21N 47°18' E 018°55'0 0.0
2017-Nov-09 05:12N 47°18' E 018°55'0 0.0
2017-Nov-09 05:00N 47°18' E 018°55'0 0.0
2017-Nov-09 02:54N 47°18' E 018°55'0 0.0
2017-Nov-09 01:58N 47°18' E 018°55'0 0.0
2017-Nov-09 00:30N 47°18' E 018°55'0 0.0
2017-Nov-08 23:51N 47°18' E 018°55'0 0.0
2017-Nov-08 12:32N 47°18' E 018°55'  

Dump ship's entire track history